sensor_id;sensor_type;location;lat;lon;timestamp;P1;durP1;ratioP1;P2;durP2;ratioP2
32826;SDS011;51059;42.058;27.986;2023-08-07T00:00:28;7.18;;;5.40;;
32826;SDS011;51059;42.058;27.986;2023-08-07T00:02:54;8.27;;;5.90;;
32826;SDS011;51059;42.058;27.986;2023-08-07T00:05:20;9.15;;;6.10;;
32826;SDS011;51059;42.058;27.986;2023-08-07T00:07:47;6.68;;;5.88;;
32826;SDS011;51059;42.058;27.986;2023-08-07T00:10:16;5.95;;;5.40;;
32826;SDS011;51059;42.058;27.986;2023-08-07T00:12:43;6.20;;;5.53;;
32826;SDS011;51059;42.058;27.986;2023-08-07T00:15:09;7.53;;;5.50;;
32826;SDS011;51059;42.058;27.986;2023-08-07T00:17:36;6.57;;;5.50;;
32826;SDS011;51059;42.058;27.986;2023-08-07T00:20:03;9.45;;;6.30;;
32826;SDS011;51059;42.058;27.986;2023-08-07T00:22:29;8.35;;;5.88;;
32826;SDS011;51059;42.058;27.986;2023-08-07T00:24:56;10.95;;;8.20;;
32826;SDS011;51059;42.058;27.986;2023-08-07T00:27:22;9.38;;;8.25;;
32826;SDS011;51059;42.058;27.986;2023-08-07T00:29:48;9.63;;;6.30;;
32826;SDS011;51059;42.058;27.986;2023-08-07T00:32:14;7.82;;;6.15;;
32826;SDS011;51059;42.058;27.986;2023-08-07T00:34:40;9.82;;;6.60;;
32826;SDS011;51059;42.058;27.986;2023-08-07T00:37:06;11.35;;;7.85;;
32826;SDS011;51059;42.058;27.986;2023-08-07T00:39:32;9.05;;;6.75;;
32826;SDS011;51059;42.058;27.986;2023-08-07T00:41:59;8.20;;;7.40;;
32826;SDS011;51059;42.058;27.986;2023-08-07T00:44:24;7.90;;;6.27;;
32826;SDS011;51059;42.058;27.986;2023-08-07T00:46:50;7.82;;;6.45;;
32826;SDS011;51059;42.058;27.986;2023-08-07T00:49:17;11.57;;;7.78;;
32826;SDS011;51059;42.058;27.986;2023-08-07T00:51:44;9.13;;;7.07;;
32826;SDS011;51059;42.058;27.986;2023-08-07T00:54:11;7.60;;;6.43;;
32826;SDS011;51059;42.058;27.986;2023-08-07T00:56:41;7.50;;;6.60;;
32826;SDS011;51059;42.058;27.986;2023-08-07T00:59:07;9.88;;;8.77;;
32826;SDS011;51059;42.058;27.986;2023-08-07T01:01:35;6.77;;;5.90;;
32826;SDS011;51059;42.058;27.986;2023-08-07T01:04:01;7.10;;;6.38;;
32826;SDS011;51059;42.058;27.986;2023-08-07T01:06:27;8.40;;;6.85;;
32826;SDS011;51059;42.058;27.986;2023-08-07T01:08:53;8.68;;;7.82;;
32826;SDS011;51059;42.058;27.986;2023-08-07T01:12:04;9.65;;;7.40;;
32826;SDS011;51059;42.058;27.986;2023-08-07T01:17:10;7.82;;;6.50;;
32826;SDS011;51059;42.058;27.986;2023-08-07T01:19:39;9.05;;;8.15;;
32826;SDS011;51059;42.058;27.986;2023-08-07T01:22:10;7.55;;;5.88;;
32826;SDS011;51059;42.058;27.986;2023-08-07T01:24:38;11.43;;;7.28;;
32826;SDS011;51059;42.058;27.986;2023-08-07T01:29:50;7.05;;;6.35;;
32826;SDS011;51059;42.058;27.986;2023-08-07T01:32:47;9.65;;;5.93;;
32826;SDS011;51059;42.058;27.986;2023-08-07T01:35:18;7.13;;;5.80;;
32826;SDS011;51059;42.058;27.986;2023-08-07T01:37:53;7.97;;;7.18;;
32826;SDS011;51059;42.058;27.986;2023-08-07T01:40:21;8.63;;;6.47;;
32826;SDS011;51059;42.058;27.986;2023-08-07T01:42:47;11.10;;;7.60;;
32826;SDS011;51059;42.058;27.986;2023-08-07T01:45:13;9.27;;;7.90;;
32826;SDS011;51059;42.058;27.986;2023-08-07T01:47:47;7.80;;;6.07;;
32826;SDS011;51059;42.058;27.986;2023-08-07T01:50:13;7.00;;;6.10;;
32826;SDS011;51059;42.058;27.986;2023-08-07T01:52:40;8.30;;;5.47;;
32826;SDS011;51059;42.058;27.986;2023-08-07T01:55:07;9.32;;;7.57;;
32826;SDS011;51059;42.058;27.986;2023-08-07T01:57:33;9.82;;;7.45;;
32826;SDS011;51059;42.058;27.986;2023-08-07T02:00:00;8.55;;;6.68;;
32826;SDS011;51059;42.058;27.986;2023-08-07T02:02:29;8.20;;;6.20;;
32826;SDS011;51059;42.058;27.986;2023-08-07T02:04:54;8.30;;;7.50;;
32826;SDS011;51059;42.058;27.986;2023-08-07T02:07:20;6.30;;;5.60;;
32826;SDS011;51059;42.058;27.986;2023-08-07T02:09:47;6.70;;;5.60;;
32826;SDS011;51059;42.058;27.986;2023-08-07T02:12:13;7.80;;;5.63;;
32826;SDS011;51059;42.058;27.986;2023-08-07T02:14:40;8.93;;;5.80;;
32826;SDS011;51059;42.058;27.986;2023-08-07T02:17:08;6.53;;;5.45;;
32826;SDS011;51059;42.058;27.986;2023-08-07T02:19:34;6.60;;;5.40;;
32826;SDS011;51059;42.058;27.986;2023-08-07T02:22:00;6.30;;;5.70;;
32826;SDS011;51059;42.058;27.986;2023-08-07T02:24:26;9.50;;;6.07;;
32826;SDS011;51059;42.058;27.986;2023-08-07T02:26:52;6.55;;;5.78;;
32826;SDS011;51059;42.058;27.986;2023-08-07T02:29:18;10.20;;;5.90;;
32826;SDS011;51059;42.058;27.986;2023-08-07T02:31:51;10.88;;;6.68;;
32826;SDS011;51059;42.058;27.986;2023-08-07T02:34:17;9.40;;;6.20;;
32826;SDS011;51059;42.058;27.986;2023-08-07T02:36:43;8.00;;;5.80;;
32826;SDS011;51059;42.058;27.986;2023-08-07T02:39:11;10.48;;;5.43;;
32826;SDS011;51059;42.058;27.986;2023-08-07T02:41:39;7.47;;;5.50;;
32826;SDS011;51059;42.058;27.986;2023-08-07T02:44:05;9.30;;;6.10;;
32826;SDS011;51059;42.058;27.986;2023-08-07T02:46:31;6.47;;;5.88;;
32826;SDS011;51059;42.058;27.986;2023-08-07T02:48:56;6.65;;;5.80;;
32826;SDS011;51059;42.058;27.986;2023-08-07T02:51:23;8.10;;;6.00;;
32826;SDS011;51059;42.058;27.986;2023-08-07T02:53:49;8.17;;;5.53;;
32826;SDS011;51059;42.058;27.986;2023-08-07T02:56:15;10.90;;;5.80;;
32826;SDS011;51059;42.058;27.986;2023-08-07T02:58:41;9.70;;;5.80;;
32826;SDS011;51059;42.058;27.986;2023-08-07T03:01:08;6.50;;;5.80;;
32826;SDS011;51059;42.058;27.986;2023-08-07T03:03:36;12.40;;;8.88;;
32826;SDS011;51059;42.058;27.986;2023-08-07T03:06:02;7.82;;;6.63;;
32826;SDS011;51059;42.058;27.986;2023-08-07T03:08:29;9.18;;;7.30;;
32826;SDS011;51059;42.058;27.986;2023-08-07T03:10:56;8.52;;;6.82;;
32826;SDS011;51059;42.058;27.986;2023-08-07T03:13:23;9.80;;;7.00;;
32826;SDS011;51059;42.058;27.986;2023-08-07T03:15:50;9.35;;;7.18;;
32826;SDS011;51059;42.058;27.986;2023-08-07T03:18:23;7.45;;;6.68;;
32826;SDS011;51059;42.058;27.986;2023-08-07T03:20:49;7.23;;;5.90;;
32826;SDS011;51059;42.058;27.986;2023-08-07T03:23:15;7.05;;;5.63;;
32826;SDS011;51059;42.058;27.986;2023-08-07T03:25:42;10.57;;;5.70;;
32826;SDS011;51059;42.058;27.986;2023-08-07T03:28:08;6.10;;;5.27;;
32826;SDS011;51059;42.058;27.986;2023-08-07T03:30:34;7.23;;;5.30;;
32826;SDS011;51059;42.058;27.986;2023-08-07T03:33:00;6.30;;;5.70;;
32826;SDS011;51059;42.058;27.986;2023-08-07T03:35:26;9.88;;;5.70;;
32826;SDS011;51059;42.058;27.986;2023-08-07T03:37:52;6.63;;;5.45;;
32826;SDS011;51059;42.058;27.986;2023-08-07T03:40:18;6.32;;;5.28;;
32826;SDS011;51059;42.058;27.986;2023-08-07T03:42:44;8.90;;;5.90;;
32826;SDS011;51059;42.058;27.986;2023-08-07T03:45:10;6.45;;;5.07;;
32826;SDS011;51059;42.058;27.986;2023-08-07T03:47:35;7.97;;;5.50;;
32826;SDS011;51059;42.058;27.986;2023-08-07T03:50:01;11.30;;;5.83;;
32826;SDS011;51059;42.058;27.986;2023-08-07T03:52:27;12.88;;;5.95;;
32826;SDS011;51059;42.058;27.986;2023-08-07T03:54:53;9.00;;;5.28;;
32826;SDS011;51059;42.058;27.986;2023-08-07T03:57:19;7.38;;;5.97;;
32826;SDS011;51059;42.058;27.986;2023-08-07T03:59:45;10.90;;;6.47;;
32826;SDS011;51059;42.058;27.986;2023-08-07T04:02:11;9.73;;;5.80;;
32826;SDS011;51059;42.058;27.986;2023-08-07T04:04:36;6.10;;;5.50;;
32826;SDS011;51059;42.058;27.986;2023-08-07T04:07:02;7.97;;;5.68;;
32826;SDS011;51059;42.058;27.986;2023-08-07T04:09:29;8.63;;;5.53;;
32826;SDS011;51059;42.058;27.986;2023-08-07T04:11:56;9.43;;;7.25;;
32826;SDS011;51059;42.058;27.986;2023-08-07T04:14:23;10.05;;;5.00;;
32826;SDS011;51059;42.058;27.986;2023-08-07T04:16:49;6.05;;;4.68;;
32826;SDS011;51059;42.058;27.986;2023-08-07T04:19:16;9.35;;;4.95;;
32826;SDS011;51059;42.058;27.986;2023-08-07T04:21:42;10.43;;;6.10;;
32826;SDS011;51059;42.058;27.986;2023-08-07T04:24:07;12.27;;;7.03;;
32826;SDS011;51059;42.058;27.986;2023-08-07T04:26:39;15.35;;;6.82;;
32826;SDS011;51059;42.058;27.986;2023-08-07T04:29:05;10.13;;;5.45;;
32826;SDS011;51059;42.058;27.986;2023-08-07T04:31:31;6.72;;;5.80;;
32826;SDS011;51059;42.058;27.986;2023-08-07T04:33:57;8.70;;;6.25;;
32826;SDS011;51059;42.058;27.986;2023-08-07T04:36:23;9.95;;;7.25;;
32826;SDS011;51059;42.058;27.986;2023-08-07T04:38:49;7.20;;;5.10;;
32826;SDS011;51059;42.058;27.986;2023-08-07T04:41:15;7.55;;;5.00;;
32826;SDS011;51059;42.058;27.986;2023-08-07T04:43:41;8.60;;;6.53;;
32826;SDS011;51059;42.058;27.986;2023-08-07T04:46:10;8.15;;;5.60;;
32826;SDS011;51059;42.058;27.986;2023-08-07T04:48:37;7.18;;;4.90;;
32826;SDS011;51059;42.058;27.986;2023-08-07T04:51:03;5.68;;;4.68;;
32826;SDS011;51059;42.058;27.986;2023-08-07T04:53:29;5.18;;;4.68;;
32826;SDS011;51059;42.058;27.986;2023-08-07T04:55:55;9.35;;;7.00;;
32826;SDS011;51059;42.058;27.986;2023-08-07T04:58:21;11.60;;;6.30;;
32826;SDS011;51059;42.058;27.986;2023-08-07T05:00:47;9.32;;;6.30;;
32826;SDS011;51059;42.058;27.986;2023-08-07T05:03:13;7.75;;;4.68;;
32826;SDS011;51059;42.058;27.986;2023-08-07T05:05:42;7.45;;;4.68;;
32826;SDS011;51059;42.058;27.986;2023-08-07T05:08:08;7.15;;;4.32;;
32826;SDS011;51059;42.058;27.986;2023-08-07T05:10:34;5.57;;;4.53;;
32826;SDS011;51059;42.058;27.986;2023-08-07T05:13:00;7.47;;;4.50;;
32826;SDS011;51059;42.058;27.986;2023-08-07T05:15:26;6.60;;;4.80;;
32826;SDS011;51059;42.058;27.986;2023-08-07T05:17:53;7.63;;;4.93;;
32826;SDS011;51059;42.058;27.986;2023-08-07T05:20:20;5.68;;;4.65;;
32826;SDS011;51059;42.058;27.986;2023-08-07T05:22:46;6.85;;;4.57;;
32826;SDS011;51059;42.058;27.986;2023-08-07T05:25:13;8.82;;;4.82;;
32826;SDS011;51059;42.058;27.986;2023-08-07T05:27:42;5.63;;;5.00;;
32826;SDS011;51059;42.058;27.986;2023-08-07T05:30:08;5.40;;;4.90;;
32826;SDS011;51059;42.058;27.986;2023-08-07T05:32:35;7.07;;;5.10;;
32826;SDS011;51059;42.058;27.986;2023-08-07T05:35:04;8.70;;;4.78;;
32826;SDS011;51059;42.058;27.986;2023-08-07T05:37:30;8.07;;;5.28;;
32826;SDS011;51059;42.058;27.986;2023-08-07T05:39:57;8.25;;;4.57;;
32826;SDS011;51059;42.058;27.986;2023-08-07T05:42:23;4.65;;;4.25;;
32826;SDS011;51059;42.058;27.986;2023-08-07T05:44:48;8.48;;;4.40;;
32826;SDS011;51059;42.058;27.986;2023-08-07T05:47:14;6.53;;;5.75;;
32826;SDS011;51059;42.058;27.986;2023-08-07T05:49:40;5.35;;;4.75;;
32826;SDS011;51059;42.058;27.986;2023-08-07T05:52:07;5.63;;;4.90;;
32826;SDS011;51059;42.058;27.986;2023-08-07T05:54:33;5.97;;;5.40;;
32826;SDS011;51059;42.058;27.986;2023-08-07T05:57:00;5.25;;;4.47;;
32826;SDS011;51059;42.058;27.986;2023-08-07T05:59:26;6.63;;;4.25;;
32826;SDS011;51059;42.058;27.986;2023-08-07T06:01:52;4.85;;;4.10;;
32826;SDS011;51059;42.058;27.986;2023-08-07T06:04:20;7.47;;;3.97;;
32826;SDS011;51059;42.058;27.986;2023-08-07T06:06:47;4.85;;;3.92;;
32826;SDS011;51059;42.058;27.986;2023-08-07T06:09:13;5.38;;;4.45;;
32826;SDS011;51059;42.058;27.986;2023-08-07T06:11:42;12.57;;;5.00;;
32826;SDS011;51059;42.058;27.986;2023-08-07T06:14:09;5.38;;;3.78;;
32826;SDS011;51059;42.058;27.986;2023-08-07T06:16:35;4.40;;;3.47;;
32826;SDS011;51059;42.058;27.986;2023-08-07T06:19:02;3.80;;;3.50;;
32826;SDS011;51059;42.058;27.986;2023-08-07T06:21:30;5.20;;;3.90;;
32826;SDS011;51059;42.058;27.986;2023-08-07T06:23:56;6.65;;;3.35;;
32826;SDS011;51059;42.058;27.986;2023-08-07T06:26:29;5.35;;;3.42;;
32826;SDS011;51059;42.058;27.986;2023-08-07T06:28:55;3.70;;;3.40;;
32826;SDS011;51059;42.058;27.986;2023-08-07T06:31:22;3.75;;;3.13;;
32826;SDS011;51059;42.058;27.986;2023-08-07T06:33:49;23.95;;;3.53;;
32826;SDS011;51059;42.058;27.986;2023-08-07T06:36:14;6.93;;;3.00;;
32826;SDS011;51059;42.058;27.986;2023-08-07T06:38:40;6.63;;;3.10;;
32826;SDS011;51059;42.058;27.986;2023-08-07T06:41:06;3.60;;;3.17;;
32826;SDS011;51059;42.058;27.986;2023-08-07T06:43:33;5.25;;;3.50;;
32826;SDS011;51059;42.058;27.986;2023-08-07T06:45:59;5.05;;;3.35;;
32826;SDS011;51059;42.058;27.986;2023-08-07T06:48:31;3.88;;;3.47;;
32826;SDS011;51059;42.058;27.986;2023-08-07T06:50:59;5.47;;;2.65;;
32826;SDS011;51059;42.058;27.986;2023-08-07T06:53:28;4.35;;;3.30;;
32826;SDS011;51059;42.058;27.986;2023-08-07T06:55:54;3.55;;;3.25;;
32826;SDS011;51059;42.058;27.986;2023-08-07T06:58:26;3.38;;;3.08;;
32826;SDS011;51059;42.058;27.986;2023-08-07T07:00:52;3.28;;;2.97;;
32826;SDS011;51059;42.058;27.986;2023-08-07T07:03:29;4.38;;;3.20;;
32826;SDS011;51059;42.058;27.986;2023-08-07T07:05:55;5.78;;;2.70;;
32826;SDS011;51059;42.058;27.986;2023-08-07T07:08:21;3.58;;;3.00;;
32826;SDS011;51059;42.058;27.986;2023-08-07T07:10:48;4.90;;;4.10;;
32826;SDS011;51059;42.058;27.986;2023-08-07T07:13:14;5.03;;;3.70;;
32826;SDS011;51059;42.058;27.986;2023-08-07T07:15:40;5.15;;;3.85;;
32826;SDS011;51059;42.058;27.986;2023-08-07T07:18:06;5.95;;;4.55;;
32826;SDS011;51059;42.058;27.986;2023-08-07T07:24:16;4.70;;;3.47;;
32826;SDS011;51059;42.058;27.986;2023-08-07T07:26:45;7.75;;;3.70;;
32826;SDS011;51059;42.058;27.986;2023-08-07T07:29:10;5.45;;;3.90;;
32826;SDS011;51059;42.058;27.986;2023-08-07T07:31:36;9.63;;;3.90;;
32826;SDS011;51059;42.058;27.986;2023-08-07T07:34:02;5.20;;;4.05;;
32826;SDS011;51059;42.058;27.986;2023-08-07T07:36:28;6.50;;;3.28;;
32826;SDS011;51059;42.058;27.986;2023-08-07T07:39:06;3.92;;;3.50;;
32826;SDS011;51059;42.058;27.986;2023-08-07T07:41:33;5.93;;;4.65;;
32826;SDS011;51059;42.058;27.986;2023-08-07T07:44:06;3.90;;;3.60;;
32826;SDS011;51059;42.058;27.986;2023-08-07T07:46:38;5.30;;;4.32;;
32826;SDS011;51059;42.058;27.986;2023-08-07T07:49:04;3.25;;;2.95;;
32826;SDS011;51059;42.058;27.986;2023-08-07T07:51:31;9.35;;;3.17;;
32826;SDS011;51059;42.058;27.986;2023-08-07T07:53:57;5.00;;;3.60;;
32826;SDS011;51059;42.058;27.986;2023-08-07T07:56:24;10.43;;;5.93;;
32826;SDS011;51059;42.058;27.986;2023-08-07T07:58:51;10.45;;;7.70;;
32826;SDS011;51059;42.058;27.986;2023-08-07T08:01:19;4.60;;;4.05;;
32826;SDS011;51059;42.058;27.986;2023-08-07T08:03:45;4.28;;;3.88;;
32826;SDS011;51059;42.058;27.986;2023-08-07T08:06:14;4.63;;;3.63;;
32826;SDS011;51059;42.058;27.986;2023-08-07T08:08:46;5.15;;;4.65;;
32826;SDS011;51059;42.058;27.986;2023-08-07T08:11:13;3.65;;;3.35;;
32826;SDS011;51059;42.058;27.986;2023-08-07T08:13:39;5.38;;;4.53;;
32826;SDS011;51059;42.058;27.986;2023-08-07T08:16:07;5.55;;;4.18;;
32826;SDS011;51059;42.058;27.986;2023-08-07T08:18:39;4.30;;;4.00;;
32826;SDS011;51059;42.058;27.986;2023-08-07T08:21:05;3.53;;;3.22;;
32826;SDS011;51059;42.058;27.986;2023-08-07T08:23:32;4.15;;;3.78;;
32826;SDS011;51059;42.058;27.986;2023-08-07T08:25:58;6.72;;;3.20;;
32826;SDS011;51059;42.058;27.986;2023-08-07T08:28:23;3.22;;;2.92;;
32826;SDS011;51059;42.058;27.986;2023-08-07T08:30:49;5.60;;;3.85;;
32826;SDS011;51059;42.058;27.986;2023-08-07T08:33:15;3.50;;;3.20;;
32826;SDS011;51059;42.058;27.986;2023-08-07T08:35:41;3.42;;;3.03;;
32826;SDS011;51059;42.058;27.986;2023-08-07T08:38:08;4.80;;;3.92;;
32826;SDS011;51059;42.058;27.986;2023-08-07T08:40:34;9.45;;;5.47;;
32826;SDS011;51059;42.058;27.986;2023-08-07T08:43:03;10.02;;;6.78;;
32826;SDS011;51059;42.058;27.986;2023-08-07T08:45:31;7.03;;;4.75;;
32826;SDS011;51059;42.058;27.986;2023-08-07T08:48:03;9.48;;;6.18;;
32826;SDS011;51059;42.058;27.986;2023-08-07T08:50:32;13.05;;;5.90;;
32826;SDS011;51059;42.058;27.986;2023-08-07T08:52:59;5.97;;;4.57;;
32826;SDS011;51059;42.058;27.986;2023-08-07T08:55:25;8.63;;;5.50;;
32826;SDS011;51059;42.058;27.986;2023-08-07T08:57:52;12.48;;;6.90;;
32826;SDS011;51059;42.058;27.986;2023-08-07T09:00:21;12.40;;;6.07;;
32826;SDS011;51059;42.058;27.986;2023-08-07T09:02:51;8.63;;;5.72;;
32826;SDS011;51059;42.058;27.986;2023-08-07T09:05:18;7.88;;;3.60;;
32826;SDS011;51059;42.058;27.986;2023-08-07T09:07:48;9.48;;;6.28;;
32826;SDS011;51059;42.058;27.986;2023-08-07T09:10:14;15.98;;;7.15;;
32826;SDS011;51059;42.058;27.986;2023-08-07T09:12:45;7.10;;;4.82;;
32826;SDS011;51059;42.058;27.986;2023-08-07T09:15:33;7.85;;;4.82;;
32826;SDS011;51059;42.058;27.986;2023-08-07T09:18:03;8.52;;;4.30;;
32826;SDS011;51059;42.058;27.986;2023-08-07T09:20:33;5.57;;;3.60;;
32826;SDS011;51059;42.058;27.986;2023-08-07T09:23:01;6.68;;;3.97;;
32826;SDS011;51059;42.058;27.986;2023-08-07T09:25:28;6.35;;;3.72;;
32826;SDS011;51059;42.058;27.986;2023-08-07T09:27:54;5.50;;;3.60;;
32826;SDS011;51059;42.058;27.986;2023-08-07T09:30:26;5.10;;;4.00;;
32826;SDS011;51059;42.058;27.986;2023-08-07T09:32:54;5.22;;;3.75;;
32826;SDS011;51059;42.058;27.986;2023-08-07T09:35:22;4.05;;;3.42;;
32826;SDS011;51059;42.058;27.986;2023-08-07T09:37:49;4.88;;;2.97;;
32826;SDS011;51059;42.058;27.986;2023-08-07T09:40:17;5.22;;;3.30;;
32826;SDS011;51059;42.058;27.986;2023-08-07T09:42:44;4.15;;;3.08;;
32826;SDS011;51059;42.058;27.986;2023-08-07T09:45:22;4.13;;;3.10;;
32826;SDS011;51059;42.058;27.986;2023-08-07T09:48:02;5.43;;;3.40;;
32826;SDS011;51059;42.058;27.986;2023-08-07T09:50:31;3.28;;;2.95;;
32826;SDS011;51059;42.058;27.986;2023-08-07T09:52:57;3.47;;;3.17;;
32826;SDS011;51059;42.058;27.986;2023-08-07T09:55:24;3.40;;;3.13;;
32826;SDS011;51059;42.058;27.986;2023-08-07T09:57:51;3.38;;;3.08;;
32826;SDS011;51059;42.058;27.986;2023-08-07T10:00:17;3.63;;;3.33;;
32826;SDS011;51059;42.058;27.986;2023-08-07T10:02:48;6.25;;;3.05;;
32826;SDS011;51059;42.058;27.986;2023-08-07T10:05:15;4.35;;;3.42;;
32826;SDS011;51059;42.058;27.986;2023-08-07T10:07:42;4.30;;;3.10;;
32826;SDS011;51059;42.058;27.986;2023-08-07T10:10:08;6.20;;;3.30;;
32826;SDS011;51059;42.058;27.986;2023-08-07T10:12:36;5.28;;;3.13;;
32826;SDS011;51059;42.058;27.986;2023-08-07T10:15:02;6.45;;;3.30;;
32826;SDS011;51059;42.058;27.986;2023-08-07T10:17:28;14.80;;;3.42;;
32826;SDS011;51059;42.058;27.986;2023-08-07T10:19:55;3.22;;;2.92;;
32826;SDS011;51059;42.058;27.986;2023-08-07T10:22:41;4.30;;;3.90;;
32826;SDS011;51059;42.058;27.986;2023-08-07T10:25:08;3.30;;;3.03;;
32826;SDS011;51059;42.058;27.986;2023-08-07T10:27:35;4.82;;;4.43;;
32826;SDS011;51059;42.058;27.986;2023-08-07T10:30:04;4.18;;;3.78;;
32826;SDS011;51059;42.058;27.986;2023-08-07T10:32:32;5.95;;;2.88;;
32826;SDS011;51059;42.058;27.986;2023-08-07T10:35:03;3.55;;;2.95;;
32826;SDS011;51059;42.058;27.986;2023-08-07T10:37:43;3.30;;;3.00;;
32826;SDS011;51059;42.058;27.986;2023-08-07T10:40:11;5.25;;;2.97;;
32826;SDS011;51059;42.058;27.986;2023-08-07T10:45:34;6.35;;;3.00;;
32826;SDS011;51059;42.058;27.986;2023-08-07T10:50:34;4.57;;;3.15;;
32826;SDS011;51059;42.058;27.986;2023-08-07T10:53:04;3.45;;;2.90;;
32826;SDS011;51059;42.058;27.986;2023-08-07T10:55:45;3.75;;;3.45;;
32826;SDS011;51059;42.058;27.986;2023-08-07T10:58:22;5.05;;;3.10;;
32826;SDS011;51059;42.058;27.986;2023-08-07T11:00:52;6.72;;;3.13;;
32826;SDS011;51059;42.058;27.986;2023-08-07T11:03:53;3.42;;;2.97;;
32826;SDS011;51059;42.058;27.986;2023-08-07T11:06:25;6.57;;;2.90;;
32826;SDS011;51059;42.058;27.986;2023-08-07T11:08:52;2.97;;;2.72;;
32826;SDS011;51059;42.058;27.986;2023-08-07T11:11:19;3.17;;;2.88;;
32826;SDS011;51059;42.058;27.986;2023-08-07T11:13:45;4.07;;;2.92;;
32826;SDS011;51059;42.058;27.986;2023-08-07T11:16:11;7.78;;;3.22;;
32826;SDS011;51059;42.058;27.986;2023-08-07T11:18:38;4.78;;;3.17;;
32826;SDS011;51059;42.058;27.986;2023-08-07T11:21:10;5.45;;;2.75;;
32826;SDS011;51059;42.058;27.986;2023-08-07T11:23:37;3.22;;;2.90;;
32826;SDS011;51059;42.058;27.986;2023-08-07T11:26:06;2.80;;;2.60;;
32826;SDS011;51059;42.058;27.986;2023-08-07T11:28:33;8.93;;;6.25;;
32826;SDS011;51059;42.058;27.986;2023-08-07T11:30:59;5.18;;;2.90;;
32826;SDS011;51059;42.058;27.986;2023-08-07T11:33:26;5.30;;;2.58;;
32826;SDS011;51059;42.058;27.986;2023-08-07T11:35:56;4.00;;;2.72;;
32826;SDS011;51059;42.058;27.986;2023-08-07T11:38:36;4.13;;;3.00;;
32826;SDS011;51059;42.058;27.986;2023-08-07T11:41:08;3.03;;;2.78;;
32826;SDS011;51059;42.058;27.986;2023-08-07T11:43:35;4.18;;;3.20;;
32826;SDS011;51059;42.058;27.986;2023-08-07T11:46:06;7.40;;;3.05;;
32826;SDS011;51059;42.058;27.986;2023-08-07T11:48:33;3.00;;;2.70;;
32826;SDS011;51059;42.058;27.986;2023-08-07T11:51:02;3.00;;;2.70;;
32826;SDS011;51059;42.058;27.986;2023-08-07T11:53:30;3.58;;;2.63;;
32826;SDS011;51059;42.058;27.986;2023-08-07T11:56:01;4.22;;;2.80;;
32826;SDS011;51059;42.058;27.986;2023-08-07T11:58:47;3.85;;;2.90;;
32826;SDS011;51059;42.058;27.986;2023-08-07T12:01:15;3.95;;;2.90;;
32826;SDS011;51059;42.058;27.986;2023-08-07T12:03:49;7.72;;;6.63;;
32826;SDS011;51059;42.058;27.986;2023-08-07T12:06:21;5.32;;;2.50;;
32826;SDS011;51059;42.058;27.986;2023-08-07T12:08:49;4.57;;;2.92;;
32826;SDS011;51059;42.058;27.986;2023-08-07T12:11:18;3.00;;;2.70;;
32826;SDS011;51059;42.058;27.986;2023-08-07T12:13:47;5.50;;;2.70;;
32826;SDS011;51059;42.058;27.986;2023-08-07T12:16:14;4.03;;;3.20;;
32826;SDS011;51059;42.058;27.986;2023-08-07T12:18:44;5.55;;;3.35;;
32826;SDS011;51059;42.058;27.986;2023-08-07T12:21:15;13.45;;;3.10;;
32826;SDS011;51059;42.058;27.986;2023-08-07T12:23:46;3.58;;;2.90;;
32826;SDS011;51059;42.058;27.986;2023-08-07T12:26:13;16.85;;;3.15;;
32826;SDS011;51059;42.058;27.986;2023-08-07T12:28:39;3.50;;;3.20;;
32826;SDS011;51059;42.058;27.986;2023-08-07T12:31:06;5.18;;;3.17;;
32826;SDS011;51059;42.058;27.986;2023-08-07T12:33:32;3.55;;;3.25;;
32826;SDS011;51059;42.058;27.986;2023-08-07T12:36:01;7.50;;;3.05;;
32826;SDS011;51059;42.058;27.986;2023-08-07T12:38:28;3.85;;;3.45;;
32826;SDS011;51059;42.058;27.986;2023-08-07T12:40:55;5.35;;;2.95;;
32826;SDS011;51059;42.058;27.986;2023-08-07T12:43:22;3.20;;;2.90;;
32826;SDS011;51059;42.058;27.986;2023-08-07T12:45:48;6.78;;;3.60;;
32826;SDS011;51059;42.058;27.986;2023-08-07T12:48:14;4.43;;;3.67;;
32826;SDS011;51059;42.058;27.986;2023-08-07T12:50:41;4.25;;;3.85;;
32826;SDS011;51059;42.058;27.986;2023-08-07T12:53:07;3.92;;;3.63;;
32826;SDS011;51059;42.058;27.986;2023-08-07T12:55:33;4.53;;;3.83;;
32826;SDS011;51059;42.058;27.986;2023-08-07T12:57:59;4.45;;;3.35;;
32826;SDS011;51059;42.058;27.986;2023-08-07T13:00:25;6.68;;;3.60;;
32826;SDS011;51059;42.058;27.986;2023-08-07T13:02:55;7.47;;;3.40;;
32826;SDS011;51059;42.058;27.986;2023-08-07T13:05:27;3.28;;;2.97;;
32826;SDS011;51059;42.058;27.986;2023-08-07T13:07:59;4.07;;;3.45;;
32826;SDS011;51059;42.058;27.986;2023-08-07T13:10:25;3.40;;;3.10;;
32826;SDS011;51059;42.058;27.986;2023-08-07T13:12:53;7.80;;;6.97;;
32826;SDS011;51059;42.058;27.986;2023-08-07T13:15:20;5.47;;;3.45;;
32826;SDS011;51059;42.058;27.986;2023-08-07T13:17:46;4.57;;;3.47;;
32826;SDS011;51059;42.058;27.986;2023-08-07T13:20:12;4.90;;;3.65;;
32826;SDS011;51059;42.058;27.986;2023-08-07T13:22:39;3.83;;;3.45;;
32826;SDS011;51059;42.058;27.986;2023-08-07T13:25:07;6.80;;;3.38;;
32826;SDS011;51059;42.058;27.986;2023-08-07T13:30:15;6.30;;;4.25;;
32826;SDS011;51059;42.058;27.986;2023-08-07T13:32:41;2.83;;;2.53;;
32826;SDS011;51059;42.058;27.986;2023-08-07T13:35:07;2.53;;;2.33;;
32826;SDS011;51059;42.058;27.986;2023-08-07T13:37:34;2.72;;;2.53;;
32826;SDS011;51059;42.058;27.986;2023-08-07T13:40:03;2.47;;;2.28;;
32826;SDS011;51059;42.058;27.986;2023-08-07T13:42:31;2.50;;;2.30;;
32826;SDS011;51059;42.058;27.986;2023-08-07T13:44:57;2.67;;;2.33;;
32826;SDS011;51059;42.058;27.986;2023-08-07T13:47:23;3.70;;;2.65;;
32826;SDS011;51059;42.058;27.986;2023-08-07T13:49:51;3.00;;;2.70;;
32826;SDS011;51059;42.058;27.986;2023-08-07T13:52:19;2.75;;;2.55;;
32826;SDS011;51059;42.058;27.986;2023-08-07T13:54:50;4.05;;;2.53;;
32826;SDS011;51059;42.058;27.986;2023-08-07T13:57:16;3.47;;;2.75;;
32826;SDS011;51059;42.058;27.986;2023-08-07T13:59:42;4.07;;;2.70;;
32826;SDS011;51059;42.058;27.986;2023-08-07T14:02:08;2.92;;;2.38;;
32826;SDS011;51059;42.058;27.986;2023-08-07T14:04:35;6.47;;;2.72;;
32826;SDS011;51059;42.058;27.986;2023-08-07T14:07:01;5.25;;;2.95;;
32826;SDS011;51059;42.058;27.986;2023-08-07T14:09:28;3.10;;;2.80;;
32826;SDS011;51059;42.058;27.986;2023-08-07T14:11:54;9.10;;;3.40;;
32826;SDS011;51059;42.058;27.986;2023-08-07T14:14:21;4.13;;;2.92;;
32826;SDS011;51059;42.058;27.986;2023-08-07T14:16:48;10.73;;;3.10;;
32826;SDS011;51059;42.058;27.986;2023-08-07T14:19:14;7.50;;;2.90;;
32826;SDS011;51059;42.058;27.986;2023-08-07T14:21:39;5.40;;;3.40;;
32826;SDS011;51059;42.058;27.986;2023-08-07T14:24:05;5.05;;;3.20;;
32826;SDS011;51059;42.058;27.986;2023-08-07T14:26:33;4.88;;;3.17;;
32826;SDS011;51059;42.058;27.986;2023-08-07T14:28:59;5.82;;;3.28;;
32826;SDS011;51059;42.058;27.986;2023-08-07T14:31:46;3.50;;;3.20;;
32826;SDS011;51059;42.058;27.986;2023-08-07T14:34:12;8.70;;;3.47;;
32826;SDS011;51059;42.058;27.986;2023-08-07T14:36:38;12.80;;;3.70;;
32826;SDS011;51059;42.058;27.986;2023-08-07T14:39:03;4.45;;;3.35;;
32826;SDS011;51059;42.058;27.986;2023-08-07T14:41:30;5.60;;;3.80;;
32826;SDS011;51059;42.058;27.986;2023-08-07T14:43:56;10.93;;;3.70;;
32826;SDS011;51059;42.058;27.986;2023-08-07T14:46:23;8.95;;;3.67;;
32826;SDS011;51059;42.058;27.986;2023-08-07T14:48:49;3.63;;;3.30;;
32826;SDS011;51059;42.058;27.986;2023-08-07T14:51:15;4.78;;;3.50;;
32826;SDS011;51059;42.058;27.986;2023-08-07T14:53:41;3.70;;;3.40;;